sensor_id;sensor_type;location;lat;lon;timestamp;P1;durP1;ratioP1;P2;durP2;ratioP2
16963;SDS011;8598;50.508;10.436;2022-12-10T00:02:06;26.37;;;14.63;;
16963;SDS011;8598;50.508;10.436;2022-12-10T00:04:33;26.53;;;14.73;;
16963;SDS011;8598;50.508;10.436;2022-12-10T00:07:01;27.40;;;14.70;;
16963;SDS011;8598;50.508;10.436;2022-12-10T00:09:28;25.50;;;14.30;;
16963;SDS011;8598;50.508;10.436;2022-12-10T00:11:55;25.97;;;14.80;;
16963;SDS011;8598;50.508;10.436;2022-12-10T00:14:22;27.17;;;14.57;;
16963;SDS011;8598;50.508;10.436;2022-12-10T00:16:48;29.33;;;15.60;;
16963;SDS011;8598;50.508;10.436;2022-12-10T00:19:15;26.53;;;14.77;;
16963;SDS011;8598;50.508;10.436;2022-12-10T00:21:42;29.20;;;15.07;;
16963;SDS011;8598;50.508;10.436;2022-12-10T00:24:11;27.53;;;14.13;;
16963;SDS011;8598;50.508;10.436;2022-12-10T00:26:38;28.57;;;14.83;;
16963;SDS011;8598;50.508;10.436;2022-12-10T00:29:06;24.40;;;13.53;;
16963;SDS011;8598;50.508;10.436;2022-12-10T00:31:36;27.70;;;13.97;;
16963;SDS011;8598;50.508;10.436;2022-12-10T00:34:04;31.20;;;15.20;;
16963;SDS011;8598;50.508;10.436;2022-12-10T00:36:33;29.10;;;14.67;;
16963;SDS011;8598;50.508;10.436;2022-12-10T00:39:01;26.07;;;13.90;;
16963;SDS011;8598;50.508;10.436;2022-12-10T00:41:30;23.07;;;13.73;;
16963;SDS011;8598;50.508;10.436;2022-12-10T00:43:57;25.17;;;13.70;;
16963;SDS011;8598;50.508;10.436;2022-12-10T00:46:24;26.27;;;14.37;;
16963;SDS011;8598;50.508;10.436;2022-12-10T00:48:52;28.23;;;14.60;;
16963;SDS011;8598;50.508;10.436;2022-12-10T00:51:19;28.03;;;14.43;;
16963;SDS011;8598;50.508;10.436;2022-12-10T00:53:48;28.40;;;14.50;;
16963;SDS011;8598;50.508;10.436;2022-12-10T00:56:16;25.47;;;14.83;;
16963;SDS011;8598;50.508;10.436;2022-12-10T00:58:46;25.83;;;13.27;;
16963;SDS011;8598;50.508;10.436;2022-12-10T01:01:15;27.47;;;14.97;;
16963;SDS011;8598;50.508;10.436;2022-12-10T01:03:44;27.77;;;14.53;;
16963;SDS011;8598;50.508;10.436;2022-12-10T01:06:12;30.83;;;15.40;;
16963;SDS011;8598;50.508;10.436;2022-12-10T01:08:41;25.97;;;14.03;;
16963;SDS011;8598;50.508;10.436;2022-12-10T01:11:08;35.47;;;18.10;;
16963;SDS011;8598;50.508;10.436;2022-12-10T01:13:36;24.97;;;13.87;;
16963;SDS011;8598;50.508;10.436;2022-12-10T01:16:05;28.60;;;14.40;;
16963;SDS011;8598;50.508;10.436;2022-12-10T01:18:33;31.30;;;15.43;;
16963;SDS011;8598;50.508;10.436;2022-12-10T01:21:01;28.17;;;14.03;;
16963;SDS011;8598;50.508;10.436;2022-12-10T01:23:28;31.83;;;14.77;;
16963;SDS011;8598;50.508;10.436;2022-12-10T01:25:58;28.97;;;15.07;;
16963;SDS011;8598;50.508;10.436;2022-12-10T01:28:27;27.20;;;14.70;;
16963;SDS011;8598;50.508;10.436;2022-12-10T01:30:55;29.40;;;14.53;;
16963;SDS011;8598;50.508;10.436;2022-12-10T01:33:26;30.33;;;15.40;;
16963;SDS011;8598;50.508;10.436;2022-12-10T01:35:53;30.27;;;15.90;;
16963;SDS011;8598;50.508;10.436;2022-12-10T01:38:20;31.37;;;15.97;;
16963;SDS011;8598;50.508;10.436;2022-12-10T01:40:47;28.43;;;15.70;;
16963;SDS011;8598;50.508;10.436;2022-12-10T01:43:14;31.60;;;16.00;;
16963;SDS011;8598;50.508;10.436;2022-12-10T01:45:41;27.47;;;15.53;;
16963;SDS011;8598;50.508;10.436;2022-12-10T01:48:07;33.23;;;16.53;;
16963;SDS011;8598;50.508;10.436;2022-12-10T01:50:35;34.43;;;17.73;;
16963;SDS011;8598;50.508;10.436;2022-12-10T01:53:03;35.10;;;16.80;;
16963;SDS011;8598;50.508;10.436;2022-12-10T01:55:46;30.00;;;15.43;;
16963;SDS011;8598;50.508;10.436;2022-12-10T01:58:15;28.33;;;14.80;;
16963;SDS011;8598;50.508;10.436;2022-12-10T02:00:54;32.87;;;15.80;;
16963;SDS011;8598;50.508;10.436;2022-12-10T02:03:31;33.00;;;16.77;;
16963;SDS011;8598;50.508;10.436;2022-12-10T02:06:06;29.07;;;15.10;;
16963;SDS011;8598;50.508;10.436;2022-12-10T02:08:44;29.80;;;15.30;;
16963;SDS011;8598;50.508;10.436;2022-12-10T02:11:22;32.30;;;15.70;;
16963;SDS011;8598;50.508;10.436;2022-12-10T02:13:53;29.27;;;14.80;;
16963;SDS011;8598;50.508;10.436;2022-12-10T02:16:30;31.67;;;15.63;;
16963;SDS011;8598;50.508;10.436;2022-12-10T02:19:00;28.50;;;15.70;;
16963;SDS011;8598;50.508;10.436;2022-12-10T02:21:40;31.73;;;16.37;;
16963;SDS011;8598;50.508;10.436;2022-12-10T02:24:11;31.63;;;15.17;;
16963;SDS011;8598;50.508;10.436;2022-12-10T02:26:42;35.03;;;16.33;;
16963;SDS011;8598;50.508;10.436;2022-12-10T02:29:14;26.73;;;14.93;;
16963;SDS011;8598;50.508;10.436;2022-12-10T02:31:45;30.07;;;15.43;;
16963;SDS011;8598;50.508;10.436;2022-12-10T02:34:15;29.77;;;15.67;;
16963;SDS011;8598;50.508;10.436;2022-12-10T02:36:44;33.37;;;16.87;;
16963;SDS011;8598;50.508;10.436;2022-12-10T02:39:16;32.60;;;15.60;;
16963;SDS011;8598;50.508;10.436;2022-12-10T02:41:47;32.80;;;16.57;;
16963;SDS011;8598;50.508;10.436;2022-12-10T02:44:19;30.73;;;15.53;;
16963;SDS011;8598;50.508;10.436;2022-12-10T02:46:48;31.90;;;15.03;;
16963;SDS011;8598;50.508;10.436;2022-12-10T02:49:17;33.57;;;16.23;;
16963;SDS011;8598;50.508;10.436;2022-12-10T02:51:44;35.23;;;15.33;;
16963;SDS011;8598;50.508;10.436;2022-12-10T02:57:03;33.83;;;16.93;;
16963;SDS011;8598;50.508;10.436;2022-12-10T02:59:40;35.00;;;16.27;;
16963;SDS011;8598;50.508;10.436;2022-12-10T03:02:18;35.83;;;16.50;;
16963;SDS011;8598;50.508;10.436;2022-12-10T03:04:52;36.40;;;15.80;;
16963;SDS011;8598;50.508;10.436;2022-12-10T03:07:25;35.57;;;17.17;;
16963;SDS011;8598;50.508;10.436;2022-12-10T03:10:00;37.57;;;16.43;;
16963;SDS011;8598;50.508;10.436;2022-12-10T03:12:30;33.27;;;16.53;;
16963;SDS011;8598;50.508;10.436;2022-12-10T03:15:05;38.53;;;16.47;;
16963;SDS011;8598;50.508;10.436;2022-12-10T03:17:38;36.27;;;17.03;;
16963;SDS011;8598;50.508;10.436;2022-12-10T03:20:08;35.47;;;16.93;;
16963;SDS011;8598;50.508;10.436;2022-12-10T03:22:39;33.43;;;16.40;;
16963;SDS011;8598;50.508;10.436;2022-12-10T03:25:09;38.83;;;17.70;;
16963;SDS011;8598;50.508;10.436;2022-12-10T03:27:39;36.97;;;16.17;;
16963;SDS011;8598;50.508;10.436;2022-12-10T03:30:10;35.50;;;16.87;;
16963;SDS011;8598;50.508;10.436;2022-12-10T03:32:37;32.43;;;16.07;;
16963;SDS011;8598;50.508;10.436;2022-12-10T03:35:04;35.07;;;17.50;;
16963;SDS011;8598;50.508;10.436;2022-12-10T03:37:32;34.73;;;17.17;;
16963;SDS011;8598;50.508;10.436;2022-12-10T03:40:00;37.00;;;16.90;;
16963;SDS011;8598;50.508;10.436;2022-12-10T03:42:28;35.07;;;16.10;;
16963;SDS011;8598;50.508;10.436;2022-12-10T03:44:55;36.77;;;16.50;;
16963;SDS011;8598;50.508;10.436;2022-12-10T03:47:23;39.83;;;16.77;;
16963;SDS011;8598;50.508;10.436;2022-12-10T03:49:50;35.43;;;17.73;;
16963;SDS011;8598;50.508;10.436;2022-12-10T03:52:17;36.90;;;17.03;;
16963;SDS011;8598;50.508;10.436;2022-12-10T03:54:44;33.80;;;16.23;;
16963;SDS011;8598;50.508;10.436;2022-12-10T03:57:11;36.37;;;17.63;;
16963;SDS011;8598;50.508;10.436;2022-12-10T03:59:37;41.93;;;18.33;;
16963;SDS011;8598;50.508;10.436;2022-12-10T04:02:04;37.30;;;18.17;;
16963;SDS011;8598;50.508;10.436;2022-12-10T04:04:32;39.67;;;16.70;;
16963;SDS011;8598;50.508;10.436;2022-12-10T04:06:59;36.63;;;17.50;;
16963;SDS011;8598;50.508;10.436;2022-12-10T04:09:26;42.67;;;18.13;;
16963;SDS011;8598;50.508;10.436;2022-12-10T04:11:54;39.23;;;16.93;;
16963;SDS011;8598;50.508;10.436;2022-12-10T04:14:22;39.10;;;17.67;;
16963;SDS011;8598;50.508;10.436;2022-12-10T04:17:06;33.23;;;16.53;;
16963;SDS011;8598;50.508;10.436;2022-12-10T04:19:35;39.30;;;17.33;;
16963;SDS011;8598;50.508;10.436;2022-12-10T04:22:02;42.33;;;17.57;;
16963;SDS011;8598;50.508;10.436;2022-12-10T04:24:47;39.13;;;17.63;;
16963;SDS011;8598;50.508;10.436;2022-12-10T04:27:32;37.00;;;18.00;;
16963;SDS011;8598;50.508;10.436;2022-12-10T04:30:01;39.13;;;18.63;;
16963;SDS011;8598;50.508;10.436;2022-12-10T04:32:29;42.27;;;16.87;;
16963;SDS011;8598;50.508;10.436;2022-12-10T04:34:57;39.37;;;17.90;;
16963;SDS011;8598;50.508;10.436;2022-12-10T04:37:24;41.40;;;20.13;;
16963;SDS011;8598;50.508;10.436;2022-12-10T04:39:52;43.70;;;18.90;;
16963;SDS011;8598;50.508;10.436;2022-12-10T04:42:19;44.00;;;18.07;;
16963;SDS011;8598;50.508;10.436;2022-12-10T04:44:47;46.43;;;18.13;;
16963;SDS011;8598;50.508;10.436;2022-12-10T04:47:14;41.13;;;17.83;;
16963;SDS011;8598;50.508;10.436;2022-12-10T04:49:41;46.33;;;18.73;;
16963;SDS011;8598;50.508;10.436;2022-12-10T04:52:11;40.93;;;18.00;;
16963;SDS011;8598;50.508;10.436;2022-12-10T04:54:39;38.77;;;17.63;;
16963;SDS011;8598;50.508;10.436;2022-12-10T04:57:06;40.47;;;18.63;;
16963;SDS011;8598;50.508;10.436;2022-12-10T04:59:33;44.60;;;17.73;;
16963;SDS011;8598;50.508;10.436;2022-12-10T05:02:01;39.67;;;17.30;;
16963;SDS011;8598;50.508;10.436;2022-12-10T05:04:27;45.93;;;18.20;;
16963;SDS011;8598;50.508;10.436;2022-12-10T05:06:54;32.50;;;15.07;;
16963;SDS011;8598;50.508;10.436;2022-12-10T05:09:22;36.93;;;17.30;;
16963;SDS011;8598;50.508;10.436;2022-12-10T05:11:49;37.70;;;18.03;;
16963;SDS011;8598;50.508;10.436;2022-12-10T05:14:16;34.60;;;16.73;;
16963;SDS011;8598;50.508;10.436;2022-12-10T05:16:42;38.23;;;16.80;;
16963;SDS011;8598;50.508;10.436;2022-12-10T05:19:09;39.47;;;17.40;;
16963;SDS011;8598;50.508;10.436;2022-12-10T05:21:37;38.40;;;16.00;;
16963;SDS011;8598;50.508;10.436;2022-12-10T05:24:17;36.57;;;17.37;;
16963;SDS011;8598;50.508;10.436;2022-12-10T05:26:46;39.30;;;17.43;;
16963;SDS011;8598;50.508;10.436;2022-12-10T05:29:15;39.43;;;17.30;;
16963;SDS011;8598;50.508;10.436;2022-12-10T05:31:43;44.93;;;18.17;;
16963;SDS011;8598;50.508;10.436;2022-12-10T05:34:09;37.93;;;17.87;;
16963;SDS011;8598;50.508;10.436;2022-12-10T05:36:36;39.97;;;17.07;;
16963;SDS011;8598;50.508;10.436;2022-12-10T05:39:04;39.60;;;17.30;;
16963;SDS011;8598;50.508;10.436;2022-12-10T05:41:33;42.17;;;18.53;;
16963;SDS011;8598;50.508;10.436;2022-12-10T05:44:02;44.23;;;17.50;;
16963;SDS011;8598;50.508;10.436;2022-12-10T05:46:30;41.57;;;18.30;;
16963;SDS011;8598;50.508;10.436;2022-12-10T05:48:59;44.67;;;16.73;;
16963;SDS011;8598;50.508;10.436;2022-12-10T05:51:27;38.20;;;16.97;;
16963;SDS011;8598;50.508;10.436;2022-12-10T05:53:56;38.90;;;17.03;;
16963;SDS011;8598;50.508;10.436;2022-12-10T05:56:24;40.70;;;16.77;;
16963;SDS011;8598;50.508;10.436;2022-12-10T05:58:53;48.73;;;17.80;;
16963;SDS011;8598;50.508;10.436;2022-12-10T06:01:24;39.50;;;17.37;;
16963;SDS011;8598;50.508;10.436;2022-12-10T06:03:53;43.87;;;17.93;;
16963;SDS011;8598;50.508;10.436;2022-12-10T06:06:21;45.73;;;19.47;;
16963;SDS011;8598;50.508;10.436;2022-12-10T06:08:49;42.77;;;17.40;;
16963;SDS011;8598;50.508;10.436;2022-12-10T06:11:16;39.03;;;17.20;;
16963;SDS011;8598;50.508;10.436;2022-12-10T06:13:44;49.53;;;21.23;;
16963;SDS011;8598;50.508;10.436;2022-12-10T06:16:12;39.07;;;18.53;;
16963;SDS011;8598;50.508;10.436;2022-12-10T06:18:41;41.70;;;17.97;;
16963;SDS011;8598;50.508;10.436;2022-12-10T06:21:09;43.17;;;17.17;;
16963;SDS011;8598;50.508;10.436;2022-12-10T06:23:37;39.73;;;17.37;;
16963;SDS011;8598;50.508;10.436;2022-12-10T06:26:05;43.53;;;18.90;;
16963;SDS011;8598;50.508;10.436;2022-12-10T06:28:34;39.70;;;16.73;;
16963;SDS011;8598;50.508;10.436;2022-12-10T06:31:01;44.40;;;18.40;;
16963;SDS011;8598;50.508;10.436;2022-12-10T06:33:27;35.83;;;16.60;;
16963;SDS011;8598;50.508;10.436;2022-12-10T06:35:55;35.77;;;15.67;;
16963;SDS011;8598;50.508;10.436;2022-12-10T06:38:22;34.93;;;16.30;;
16963;SDS011;8598;50.508;10.436;2022-12-10T06:40:49;39.87;;;17.57;;
16963;SDS011;8598;50.508;10.436;2022-12-10T06:43:16;38.93;;;17.47;;
16963;SDS011;8598;50.508;10.436;2022-12-10T06:45:42;36.17;;;16.77;;
16963;SDS011;8598;50.508;10.436;2022-12-10T06:48:09;39.03;;;16.93;;
16963;SDS011;8598;50.508;10.436;2022-12-10T06:50:36;37.23;;;16.80;;
16963;SDS011;8598;50.508;10.436;2022-12-10T06:53:05;33.77;;;15.77;;
16963;SDS011;8598;50.508;10.436;2022-12-10T06:55:32;41.37;;;17.83;;
16963;SDS011;8598;50.508;10.436;2022-12-10T06:57:59;41.23;;;15.77;;
16963;SDS011;8598;50.508;10.436;2022-12-10T07:00:25;36.67;;;16.87;;
16963;SDS011;8598;50.508;10.436;2022-12-10T07:02:52;34.30;;;15.37;;
16963;SDS011;8598;50.508;10.436;2022-12-10T07:05:19;30.10;;;15.47;;
16963;SDS011;8598;50.508;10.436;2022-12-10T07:07:46;35.77;;;16.73;;
16963;SDS011;8598;50.508;10.436;2022-12-10T07:10:14;32.77;;;15.13;;
16963;SDS011;8598;50.508;10.436;2022-12-10T07:12:41;30.17;;;14.93;;
16963;SDS011;8598;50.508;10.436;2022-12-10T07:15:08;33.97;;;15.67;;
16963;SDS011;8598;50.508;10.436;2022-12-10T07:17:35;36.87;;;16.37;;
16963;SDS011;8598;50.508;10.436;2022-12-10T07:20:02;39.20;;;17.20;;
16963;SDS011;8598;50.508;10.436;2022-12-10T07:22:29;34.63;;;15.97;;
16963;SDS011;8598;50.508;10.436;2022-12-10T07:24:55;42.07;;;17.43;;
16963;SDS011;8598;50.508;10.436;2022-12-10T07:27:23;36.10;;;16.53;;
16963;SDS011;8598;50.508;10.436;2022-12-10T07:29:51;51.07;;;21.47;;
16963;SDS011;8598;50.508;10.436;2022-12-10T07:32:17;37.27;;;17.53;;
16963;SDS011;8598;50.508;10.436;2022-12-10T07:34:44;37.60;;;17.00;;
16963;SDS011;8598;50.508;10.436;2022-12-10T07:37:11;36.53;;;17.27;;
16963;SDS011;8598;50.508;10.436;2022-12-10T07:39:38;35.03;;;16.83;;
16963;SDS011;8598;50.508;10.436;2022-12-10T07:42:04;39.47;;;17.57;;
16963;SDS011;8598;50.508;10.436;2022-12-10T07:44:33;43.17;;;17.87;;
16963;SDS011;8598;50.508;10.436;2022-12-10T07:46:59;36.83;;;17.27;;
16963;SDS011;8598;50.508;10.436;2022-12-10T07:49:26;38.80;;;17.57;;
16963;SDS011;8598;50.508;10.436;2022-12-10T07:51:55;39.03;;;17.87;;
16963;SDS011;8598;50.508;10.436;2022-12-10T07:54:21;42.47;;;19.43;;
16963;SDS011;8598;50.508;10.436;2022-12-10T07:56:48;43.67;;;17.90;;
16963;SDS011;8598;50.508;10.436;2022-12-10T07:59:15;37.10;;;17.53;;
16963;SDS011;8598;50.508;10.436;2022-12-10T08:01:43;40.27;;;17.80;;
16963;SDS011;8598;50.508;10.436;2022-12-10T08:04:10;38.00;;;16.93;;
16963;SDS011;8598;50.508;10.436;2022-12-10T08:06:36;36.33;;;15.70;;
16963;SDS011;8598;50.508;10.436;2022-12-10T08:09:03;37.33;;;16.70;;
16963;SDS011;8598;50.508;10.436;2022-12-10T08:11:30;33.57;;;15.20;;
16963;SDS011;8598;50.508;10.436;2022-12-10T08:13:57;32.07;;;15.50;;
16963;SDS011;8598;50.508;10.436;2022-12-10T08:16:24;32.13;;;15.33;;
16963;SDS011;8598;50.508;10.436;2022-12-10T08:18:54;34.80;;;16.13;;
16963;SDS011;8598;50.508;10.436;2022-12-10T08:21:23;29.40;;;14.77;;
16963;SDS011;8598;50.508;10.436;2022-12-10T08:23:51;30.40;;;14.83;;
16963;SDS011;8598;50.508;10.436;2022-12-10T08:26:19;29.93;;;14.87;;
16963;SDS011;8598;50.508;10.436;2022-12-10T08:28:47;29.37;;;14.00;;
16963;SDS011;8598;50.508;10.436;2022-12-10T08:31:16;28.53;;;13.63;;
16963;SDS011;8598;50.508;10.436;2022-12-10T08:33:44;30.57;;;14.17;;
16963;SDS011;8598;50.508;10.436;2022-12-10T08:36:13;26.67;;;13.10;;
16963;SDS011;8598;50.508;10.436;2022-12-10T08:38:41;23.10;;;11.80;;
16963;SDS011;8598;50.508;10.436;2022-12-10T08:41:08;20.83;;;11.37;;
16963;SDS011;8598;50.508;10.436;2022-12-10T08:43:37;21.97;;;11.73;;
16963;SDS011;8598;50.508;10.436;2022-12-10T08:46:04;22.63;;;10.87;;
16963;SDS011;8598;50.508;10.436;2022-12-10T08:48:31;17.87;;;9.97;;
16963;SDS011;8598;50.508;10.436;2022-12-10T08:50:59;21.63;;;11.07;;
16963;SDS011;8598;50.508;10.436;2022-12-10T08:53:27;16.80;;;10.33;;
16963;SDS011;8598;50.508;10.436;2022-12-10T08:55:54;21.67;;;12.10;;
16963;SDS011;8598;50.508;10.436;2022-12-10T08:58:20;20.03;;;10.40;;
16963;SDS011;8598;50.508;10.436;2022-12-10T09:00:48;19.87;;;10.77;;
16963;SDS011;8598;50.508;10.436;2022-12-10T09:03:15;18.57;;;10.00;;
16963;SDS011;8598;50.508;10.436;2022-12-10T09:05:42;18.97;;;10.37;;
16963;SDS011;8598;50.508;10.436;2022-12-10T09:08:10;18.97;;;11.17;;
16963;SDS011;8598;50.508;10.436;2022-12-10T09:10:38;17.40;;;9.90;;
16963;SDS011;8598;50.508;10.436;2022-12-10T09:13:05;15.87;;;10.00;;
16963;SDS011;8598;50.508;10.436;2022-12-10T09:15:32;17.63;;;10.30;;
16963;SDS011;8598;50.508;10.436;2022-12-10T09:17:59;17.80;;;10.23;;
16963;SDS011;8598;50.508;10.436;2022-12-10T09:20:26;16.23;;;9.93;;
16963;SDS011;8598;50.508;10.436;2022-12-10T09:22:53;17.60;;;10.00;;
16963;SDS011;8598;50.508;10.436;2022-12-10T09:25:19;15.47;;;9.17;;
16963;SDS011;8598;50.508;10.436;2022-12-10T09:27:48;14.97;;;9.10;;
16963;SDS011;8598;50.508;10.436;2022-12-10T09:30:15;15.90;;;9.03;;
16963;SDS011;8598;50.508;10.436;2022-12-10T09:32:42;16.17;;;10.00;;
16963;SDS011;8598;50.508;10.436;2022-12-10T09:35:09;16.13;;;9.50;;
16963;SDS011;8598;50.508;10.436;2022-12-10T09:37:35;18.87;;;9.00;;
16963;SDS011;8598;50.508;10.436;2022-12-10T09:40:03;17.90;;;10.17;;
16963;SDS011;8598;50.508;10.436;2022-12-10T09:42:33;13.90;;;8.23;;
16963;SDS011;8598;50.508;10.436;2022-12-10T09:45:09;17.03;;;9.63;;
16963;SDS011;8598;50.508;10.436;2022-12-10T09:47:45;15.97;;;9.23;;
16963;SDS011;8598;50.508;10.436;2022-12-10T09:50:19;12.40;;;7.83;;
16963;SDS011;8598;50.508;10.436;2022-12-10T09:52:49;14.67;;;8.03;;
16963;SDS011;8598;50.508;10.436;2022-12-10T09:55:20;12.93;;;7.63;;
16963;SDS011;8598;50.508;10.436;2022-12-10T09:57:54;8.50;;;6.23;;
16963;SDS011;8598;50.508;10.436;2022-12-10T10:00:23;11.80;;;6.70;;
16963;SDS011;8598;50.508;10.436;2022-12-10T10:02:55;12.00;;;7.27;;
16963;SDS011;8598;50.508;10.436;2022-12-10T10:05:24;9.53;;;7.10;;
16963;SDS011;8598;50.508;10.436;2022-12-10T10:07:54;9.27;;;6.00;;
16963;SDS011;8598;50.508;10.436;2022-12-10T10:10:24;11.03;;;6.83;;
16963;SDS011;8598;50.508;10.436;2022-12-10T10:12:53;8.80;;;5.60;;
16963;SDS011;8598;50.508;10.436;2022-12-10T10:15:26;8.27;;;5.70;;
16963;SDS011;8598;50.508;10.436;2022-12-10T10:17:58;8.10;;;5.37;;
16963;SDS011;8598;50.508;10.436;2022-12-10T10:20:29;9.87;;;6.53;;
16963;SDS011;8598;50.508;10.436;2022-12-10T10:22:56;11.23;;;7.40;;
16963;SDS011;8598;50.508;10.436;2022-12-10T10:25:24;12.03;;;6.40;;
16963;SDS011;8598;50.508;10.436;2022-12-10T10:27:52;10.43;;;7.03;;
16963;SDS011;8598;50.508;10.436;2022-12-10T10:30:19;12.17;;;7.73;;
16963;SDS011;8598;50.508;10.436;2022-12-10T10:32:50;9.80;;;7.00;;
16963;SDS011;8598;50.508;10.436;2022-12-10T10:35:22;40.97;;;22.87;;
16963;SDS011;8598;50.508;10.436;2022-12-10T10:37:52;14.00;;;9.17;;
16963;SDS011;8598;50.508;10.436;2022-12-10T10:40:25;20.40;;;11.23;;
16963;SDS011;8598;50.508;10.436;2022-12-10T10:42:54;18.60;;;11.43;;
16963;SDS011;8598;50.508;10.436;2022-12-10T10:45:36;10.90;;;7.87;;
16963;SDS011;8598;50.508;10.436;2022-12-10T10:48:13;12.07;;;8.10;;
16963;SDS011;8598;50.508;10.436;2022-12-10T10:50:42;15.67;;;8.63;;
16963;SDS011;8598;50.508;10.436;2022-12-10T10:53:20;17.30;;;9.57;;
16963;SDS011;8598;50.508;10.436;2022-12-10T10:55:53;16.77;;;9.40;;
16963;SDS011;8598;50.508;10.436;2022-12-10T10:58:22;14.33;;;9.63;;
16963;SDS011;8598;50.508;10.436;2022-12-10T11:00:57;17.33;;;8.53;;
16963;SDS011;8598;50.508;10.436;2022-12-10T11:03:28;16.00;;;8.03;;
16963;SDS011;8598;50.508;10.436;2022-12-10T11:05:56;14.30;;;7.73;;
16963;SDS011;8598;50.508;10.436;2022-12-10T11:08:25;17.13;;;8.40;;
16963;SDS011;8598;50.508;10.436;2022-12-10T11:10:56;13.77;;;7.53;;
16963;SDS011;8598;50.508;10.436;2022-12-10T11:13:27;15.77;;;8.67;;
16963;SDS011;8598;50.508;10.436;2022-12-10T11:15:57;19.17;;;8.87;;
16963;SDS011;8598;50.508;10.436;2022-12-10T11:18:29;12.17;;;7.30;;
16963;SDS011;8598;50.508;10.436;2022-12-10T11:20:59;13.00;;;8.13;;
16963;SDS011;8598;50.508;10.436;2022-12-10T11:23:31;12.87;;;8.23;;
16963;SDS011;8598;50.508;10.436;2022-12-10T11:26:08;14.03;;;7.93;;
16963;SDS011;8598;50.508;10.436;2022-12-10T11:28:44;13.37;;;7.70;;
16963;SDS011;8598;50.508;10.436;2022-12-10T11:31:27;10.60;;;6.87;;
16963;SDS011;8598;50.508;10.436;2022-12-10T11:34:08;14.20;;;7.33;;
16963;SDS011;8598;50.508;10.436;2022-12-10T11:36:46;11.30;;;7.20;;
16963;SDS011;8598;50.508;10.436;2022-12-10T11:39:27;11.30;;;7.33;;
16963;SDS011;8598;50.508;10.436;2022-12-10T11:42:12;13.33;;;7.00;;
16963;SDS011;8598;50.508;10.436;2022-12-10T11:44:48;12.43;;;6.93;;
16963;SDS011;8598;50.508;10.436;2022-12-10T11:47:28;12.23;;;7.17;;
16963;SDS011;8598;50.508;10.436;2022-12-10T11:50:10;12.77;;;7.03;;
16963;SDS011;8598;50.508;10.436;2022-12-10T11:52:44;15.23;;;7.53;;
16963;SDS011;8598;50.508;10.436;2022-12-10T11:55:24;13.73;;;7.87;;
16963;SDS011;8598;50.508;10.436;2022-12-10T11:58:01;14.60;;;8.70;;
16963;SDS011;8598;50.508;10.436;2022-12-10T12:00:43;11.87;;;8.10;;
16963;SDS011;8598;50.508;10.436;2022-12-10T12:06:19;9.80;;;6.67;;
16963;SDS011;8598;50.508;10.436;2022-12-10T12:08:58;23.33;;;6.83;;
16963;SDS011;8598;50.508;10.436;2022-12-10T12:11:41;11.30;;;7.57;;
16963;SDS011;8598;50.508;10.436;2022-12-10T12:14:19;11.20;;;7.00;;
16963;SDS011;8598;50.508;10.436;2022-12-10T12:16:51;13.27;;;8.00;;
16963;SDS011;8598;50.508;10.436;2022-12-10T12:19:28;13.47;;;8.07;;
16963;SDS011;8598;50.508;10.436;2022-12-10T12:22:02;13.97;;;8.67;;
16963;SDS011;8598;50.508;10.436;2022-12-10T12:24:36;10.97;;;7.40;;
16963;SDS011;8598;50.508;10.436;2022-12-10T12:27:07;11.50;;;7.67;;
16963;SDS011;8598;50.508;10.436;2022-12-10T12:29:41;17.90;;;8.57;;
16963;SDS011;8598;50.508;10.436;2022-12-10T12:32:11;10.30;;;6.57;;
16963;SDS011;8598;50.508;10.436;2022-12-10T12:34:44;11.60;;;7.27;;
16963;SDS011;8598;50.508;10.436;2022-12-10T12:37:18;9.20;;;6.60;;
16963;SDS011;8598;50.508;10.436;2022-12-10T12:39:50;10.90;;;6.53;;
16963;SDS011;8598;50.508;10.436;2022-12-10T12:42:24;10.00;;;6.90;;
16963;SDS011;8598;50.508;10.436;2022-12-10T12:44:57;10.60;;;7.37;;
16963;SDS011;8598;50.508;10.436;2022-12-10T12:47:30;11.03;;;7.00;;
16963;SDS011;8598;50.508;10.436;2022-12-10T12:50:04;8.67;;;5.87;;
16963;SDS011;8598;50.508;10.436;2022-12-10T12:52:40;10.30;;;6.50;;
16963;SDS011;8598;50.508;10.436;2022-12-10T12:55:15;12.33;;;7.33;;
16963;SDS011;8598;50.508;10.436;2022-12-10T12:57:46;12.30;;;7.40;;
16963;SDS011;8598;50.508;10.436;2022-12-10T13:00:17;12.60;;;7.37;;
16963;SDS011;8598;50.508;10.436;2022-12-10T13:02:58;13.93;;;6.03;;
16963;SDS011;8598;50.508;10.436;2022-12-10T13:05:32;11.37;;;7.03;;
16963;SDS011;8598;50.508;10.436;2022-12-10T13:11:16;11.87;;;6.80;;
16963;SDS011;8598;50.508;10.436;2022-12-10T13:16:53;11.00;;;7.67;;
16963;SDS011;8598;50.508;10.436;2022-12-10T13:19:29;12.50;;;7.20;;
16963;SDS011;8598;50.508;10.436;2022-12-10T13:21:57;11.43;;;7.50;;
16963;SDS011;8598;50.508;10.436;2022-12-10T13:27:29;13.00;;;6.83;;
16963;SDS011;8598;50.508;10.436;2022-12-10T13:29:59;11.13;;;7.03;;
16963;SDS011;8598;50.508;10.436;2022-12-10T13:32:42;10.20;;;6.20;;
16963;SDS011;8598;50.508;10.436;2022-12-10T13:35:22;13.20;;;7.43;;
16963;SDS011;8598;50.508;10.436;2022-12-10T13:37:55;13.53;;;7.63;;
16963;SDS011;8598;50.508;10.436;2022-12-10T13:40:36;11.33;;;6.47;;
16963;SDS011;8598;50.508;10.436;2022-12-10T13:43:26;11.60;;;6.90;;
16963;SDS011;8598;50.508;10.436;2022-12-10T13:46:26;11.50;;;6.50;;
16963;SDS011;8598;50.508;10.436;2022-12-10T13:48:57;11.07;;;6.23;;
16963;SDS011;8598;50.508;10.436;2022-12-10T13:51:28;9.20;;;6.03;;
16963;SDS011;8598;50.508;10.436;2022-12-10T13:57:12;9.40;;;6.90;;
16963;SDS011;8598;50.508;10.436;2022-12-10T13:59:54;12.00;;;7.33;;
16963;SDS011;8598;50.508;10.436;2022-12-10T14:02:43;10.93;;;7.17;;
16963;SDS011;8598;50.508;10.436;2022-12-10T14:05:25;11.30;;;6.60;;
16963;SDS011;8598;50.508;10.436;2022-12-10T14:08:00;12.47;;;7.33;;
16963;SDS011;8598;50.508;10.436;2022-12-10T14:10:31;11.77;;;7.37;;
16963;SDS011;8598;50.508;10.436;2022-12-10T14:12:59;14.47;;;7.80;;
16963;SDS011;8598;50.508;10.436;2022-12-10T14:15:31;9.83;;;6.97;;
16963;SDS011;8598;50.508;10.436;2022-12-10T14:18:03;15.33;;;8.50;;
16963;SDS011;8598;50.508;10.436;2022-12-10T14:20:36;9.87;;;6.60;;
16963;SDS011;8598;50.508;10.436;2022-12-10T14:23:19;10.80;;;7.27;;
16963;SDS011;8598;50.508;10.436;2022-12-10T14:26:06;11.80;;;7.27;;
16963;SDS011;8598;50.508;10.436;2022-12-10T14:28:40;12.50;;;7.83;;
16963;SDS011;8598;50.508;10.436;2022-12-10T14:31:12;12.47;;;7.03;;
16963;SDS011;8598;50.508;10.436;2022-12-10T14:33:42;11.73;;;7.63;;
16963;SDS011;8598;50.508;10.436;2022-12-10T14:36:14;11.73;;;7.10;;
16963;SDS011;8598;50.508;10.436;2022-12-10T14:38:44;13.77;;;8.33;;
16963;SDS011;8598;50.508;10.436;2022-12-10T14:41:13;11.17;;;7.10;;
16963;SDS011;8598;50.508;10.436;2022-12-10T14:43:44;9.10;;;7.03;;
16963;SDS011;8598;50.508;10.436;2022-12-10T14:46:14;14.13;;;8.43;;
16963;SDS011;8598;50.508;10.436;2022-12-10T14:48:46;12.67;;;8.03;;
16963;SDS011;8598;50.508;10.436;2022-12-10T14:51:16;14.50;;;8.97;;
16963;SDS011;8598;50.508;10.436;2022-12-10T14:53:45;11.13;;;7.30;;
16963;SDS011;8598;50.508;10.436;2022-12-10T14:56:14;10.43;;;6.93;;
16963;SDS011;8598;50.508;10.436;2022-12-10T14:58:46;12.30;;;7.13;;
16963;SDS011;8598;50.508;10.436;2022-12-10T15:01:19;10.43;;;6.87;;
16963;SDS011;8598;50.508;10.436;2022-12-10T15:03:53;12.00;;;7.23;;